sensor_id;sensor_type;location;lat;lon;timestamp;P1;durP1;ratioP1;P2;durP2;ratioP2
65545;SDS011;52177;55.968;37.498;2023-02-01T00:00:11;10.95;;;7.57;;
65545;SDS011;52177;55.968;37.498;2023-02-01T00:00:42;8.45;;;7.45;;
65545;SDS011;52177;55.968;37.498;2023-02-01T00:01:12;9.25;;;7.15;;
65545;SDS011;52177;55.968;37.498;2023-02-01T00:01:42;9.70;;;7.45;;
65545;SDS011;52177;55.968;37.498;2023-02-01T00:02:13;9.18;;;7.10;;
65545;SDS011;52177;55.968;37.498;2023-02-01T00:02:43;11.63;;;7.50;;
65545;SDS011;52177;55.968;37.498;2023-02-01T00:03:13;8.57;;;6.60;;
65545;SDS011;52177;55.968;37.498;2023-02-01T00:03:44;11.10;;;7.53;;
65545;SDS011;52177;55.968;37.498;2023-02-01T00:04:14;9.27;;;7.63;;
65545;SDS011;52177;55.968;37.498;2023-02-01T00:04:45;11.10;;;7.40;;
65545;SDS011;52177;55.968;37.498;2023-02-01T00:05:15;10.43;;;8.00;;
65545;SDS011;52177;55.968;37.498;2023-02-01T00:05:54;9.75;;;7.25;;
65545;SDS011;52177;55.968;37.498;2023-02-01T00:06:25;11.57;;;7.70;;
65545;SDS011;52177;55.968;37.498;2023-02-01T00:06:56;10.40;;;7.50;;
65545;SDS011;52177;55.968;37.498;2023-02-01T00:07:26;8.95;;;7.30;;
65545;SDS011;52177;55.968;37.498;2023-02-01T00:07:56;10.57;;;7.18;;
65545;SDS011;52177;55.968;37.498;2023-02-01T00:08:27;10.70;;;7.50;;
65545;SDS011;52177;55.968;37.498;2023-02-01T00:08:57;8.77;;;7.28;;
65545;SDS011;52177;55.968;37.498;2023-02-01T00:09:28;9.82;;;7.55;;
65545;SDS011;52177;55.968;37.498;2023-02-01T00:09:58;10.48;;;7.63;;
65545;SDS011;52177;55.968;37.498;2023-02-01T00:10:28;11.02;;;7.57;;
65545;SDS011;52177;55.968;37.498;2023-02-01T00:10:59;8.73;;;7.38;;
65545;SDS011;52177;55.968;37.498;2023-02-01T00:11:33;9.95;;;7.18;;
65545;SDS011;52177;55.968;37.498;2023-02-01T00:12:04;10.23;;;7.55;;
65545;SDS011;52177;55.968;37.498;2023-02-01T00:12:34;10.18;;;7.10;;
65545;SDS011;52177;55.968;37.498;2023-02-01T00:13:05;10.00;;;7.93;;
65545;SDS011;52177;55.968;37.498;2023-02-01T00:13:39;10.25;;;7.28;;
65545;SDS011;52177;55.968;37.498;2023-02-01T00:14:11;10.02;;;7.55;;
65545;SDS011;52177;55.968;37.498;2023-02-01T00:14:42;9.60;;;7.32;;
65545;SDS011;52177;55.968;37.498;2023-02-01T00:15:12;9.75;;;7.88;;
65545;SDS011;52177;55.968;37.498;2023-02-01T00:15:42;10.65;;;7.53;;
65545;SDS011;52177;55.968;37.498;2023-02-01T00:16:16;10.27;;;7.57;;
65545;SDS011;52177;55.968;37.498;2023-02-01T00:16:49;9.73;;;7.47;;
65545;SDS011;52177;55.968;37.498;2023-02-01T00:17:19;9.90;;;7.75;;
65545;SDS011;52177;55.968;37.498;2023-02-01T00:17:53;9.82;;;7.68;;
65545;SDS011;52177;55.968;37.498;2023-02-01T00:18:24;9.98;;;7.43;;
65545;SDS011;52177;55.968;37.498;2023-02-01T00:19:36;10.30;;;8.43;;
65545;SDS011;52177;55.968;37.498;2023-02-01T00:20:06;10.48;;;7.43;;
65545;SDS011;52177;55.968;37.498;2023-02-01T00:20:37;9.43;;;7.43;;
65545;SDS011;52177;55.968;37.498;2023-02-01T00:21:10;11.52;;;8.35;;
65545;SDS011;52177;55.968;37.498;2023-02-01T00:21:41;12.60;;;8.02;;
65545;SDS011;52177;55.968;37.498;2023-02-01T00:22:13;11.30;;;8.98;;
65545;SDS011;52177;55.968;37.498;2023-02-01T00:22:44;10.40;;;8.35;;
65545;SDS011;52177;55.968;37.498;2023-02-01T00:23:14;11.75;;;8.82;;
65545;SDS011;52177;55.968;37.498;2023-02-01T00:23:45;10.40;;;8.18;;
65545;SDS011;52177;55.968;37.498;2023-02-01T00:24:15;11.88;;;8.52;;
65545;SDS011;52177;55.968;37.498;2023-02-01T00:24:46;11.98;;;8.05;;
65545;SDS011;52177;55.968;37.498;2023-02-01T00:25:16;11.15;;;8.07;;
65545;SDS011;52177;55.968;37.498;2023-02-01T00:25:46;11.60;;;8.50;;
65545;SDS011;52177;55.968;37.498;2023-02-01T00:26:18;12.48;;;9.05;;
65545;SDS011;52177;55.968;37.498;2023-02-01T00:26:52;10.93;;;8.55;;
65545;SDS011;52177;55.968;37.498;2023-02-01T00:27:23;11.73;;;8.18;;
65545;SDS011;52177;55.968;37.498;2023-02-01T00:27:53;11.07;;;9.15;;
65545;SDS011;52177;55.968;37.498;2023-02-01T00:28:23;13.15;;;8.85;;
65545;SDS011;52177;55.968;37.498;2023-02-01T00:28:53;11.52;;;9.30;;
65545;SDS011;52177;55.968;37.498;2023-02-01T00:29:24;10.70;;;8.85;;
65545;SDS011;52177;55.968;37.498;2023-02-01T00:29:54;11.70;;;9.80;;
65545;SDS011;52177;55.968;37.498;2023-02-01T00:30:25;13.10;;;9.25;;
65545;SDS011;52177;55.968;37.498;2023-02-01T00:30:59;13.32;;;9.25;;
65545;SDS011;52177;55.968;37.498;2023-02-01T00:31:31;13.05;;;9.40;;
65545;SDS011;52177;55.968;37.498;2023-02-01T00:32:02;15.63;;;9.20;;
65545;SDS011;52177;55.968;37.498;2023-02-01T00:32:32;14.18;;;9.82;;
65545;SDS011;52177;55.968;37.498;2023-02-01T00:33:03;13.40;;;10.18;;
65545;SDS011;52177;55.968;37.498;2023-02-01T00:33:33;13.25;;;9.75;;
65545;SDS011;52177;55.968;37.498;2023-02-01T00:34:04;11.95;;;9.40;;
65545;SDS011;52177;55.968;37.498;2023-02-01T00:34:35;12.80;;;9.38;;
65545;SDS011;52177;55.968;37.498;2023-02-01T00:35:05;14.25;;;9.93;;
65545;SDS011;52177;55.968;37.498;2023-02-01T00:35:38;13.63;;;9.50;;
65545;SDS011;52177;55.968;37.498;2023-02-01T00:36:08;13.43;;;9.18;;
65545;SDS011;52177;55.968;37.498;2023-02-01T00:36:39;13.50;;;9.95;;
65545;SDS011;52177;55.968;37.498;2023-02-01T00:37:10;13.95;;;10.38;;
65545;SDS011;52177;55.968;37.498;2023-02-01T00:37:41;12.60;;;9.77;;
65545;SDS011;52177;55.968;37.498;2023-02-01T00:38:11;13.38;;;10.70;;
65545;SDS011;52177;55.968;37.498;2023-02-01T00:38:41;13.18;;;9.77;;
65545;SDS011;52177;55.968;37.498;2023-02-01T00:39:12;14.35;;;10.52;;
65545;SDS011;52177;55.968;37.498;2023-02-01T00:39:43;14.80;;;9.93;;
65545;SDS011;52177;55.968;37.498;2023-02-01T00:40:13;17.02;;;10.30;;
65545;SDS011;52177;55.968;37.498;2023-02-01T00:40:43;15.93;;;10.40;;
65545;SDS011;52177;55.968;37.498;2023-02-01T00:41:15;12.95;;;10.18;;
65545;SDS011;52177;55.968;37.498;2023-02-01T00:41:47;14.63;;;10.15;;
65545;SDS011;52177;55.968;37.498;2023-02-01T00:42:17;12.85;;;9.80;;
65545;SDS011;52177;55.968;37.498;2023-02-01T00:42:47;14.65;;;10.30;;
65545;SDS011;52177;55.968;37.498;2023-02-01T00:43:18;13.15;;;10.25;;
65545;SDS011;52177;55.968;37.498;2023-02-01T00:43:49;14.90;;;10.73;;
65545;SDS011;52177;55.968;37.498;2023-02-01T00:44:20;13.80;;;10.57;;
65545;SDS011;52177;55.968;37.498;2023-02-01T00:44:50;15.15;;;10.40;;
65545;SDS011;52177;55.968;37.498;2023-02-01T00:45:21;15.48;;;10.57;;
65545;SDS011;52177;55.968;37.498;2023-02-01T00:45:51;13.98;;;10.60;;
65545;SDS011;52177;55.968;37.498;2023-02-01T00:46:21;16.80;;;11.20;;
65545;SDS011;52177;55.968;37.498;2023-02-01T00:46:52;14.52;;;10.57;;
65545;SDS011;52177;55.968;37.498;2023-02-01T00:47:22;14.23;;;10.45;;
65545;SDS011;52177;55.968;37.498;2023-02-01T00:47:52;16.95;;;11.55;;
65545;SDS011;52177;55.968;37.498;2023-02-01T00:48:23;15.13;;;11.18;;
65545;SDS011;52177;55.968;37.498;2023-02-01T00:48:55;15.20;;;11.18;;
65545;SDS011;52177;55.968;37.498;2023-02-01T00:49:26;15.38;;;10.48;;
65545;SDS011;52177;55.968;37.498;2023-02-01T00:49:57;15.93;;;10.70;;
65545;SDS011;52177;55.968;37.498;2023-02-01T00:50:27;16.38;;;11.55;;
65545;SDS011;52177;55.968;37.498;2023-02-01T00:51:02;14.88;;;10.88;;
65545;SDS011;52177;55.968;37.498;2023-02-01T00:51:34;14.77;;;11.10;;
65545;SDS011;52177;55.968;37.498;2023-02-01T00:52:05;15.07;;;10.68;;
65545;SDS011;52177;55.968;37.498;2023-02-01T00:52:35;17.95;;;11.45;;
65545;SDS011;52177;55.968;37.498;2023-02-01T00:53:05;14.15;;;10.68;;
65545;SDS011;52177;55.968;37.498;2023-02-01T00:53:36;16.20;;;12.15;;
65545;SDS011;52177;55.968;37.498;2023-02-01T00:54:07;14.35;;;11.40;;
65545;SDS011;52177;55.968;37.498;2023-02-01T00:54:37;15.18;;;10.43;;
65545;SDS011;52177;55.968;37.498;2023-02-01T00:55:07;15.52;;;11.45;;
65545;SDS011;52177;55.968;37.498;2023-02-01T00:55:38;15.70;;;11.57;;
65545;SDS011;52177;55.968;37.498;2023-02-01T00:56:08;15.05;;;11.25;;
65545;SDS011;52177;55.968;37.498;2023-02-01T00:56:39;14.45;;;11.05;;
65545;SDS011;52177;55.968;37.498;2023-02-01T00:57:10;14.50;;;10.95;;
65545;SDS011;52177;55.968;37.498;2023-02-01T00:57:40;15.00;;;11.27;;
65545;SDS011;52177;55.968;37.498;2023-02-01T00:58:10;16.15;;;11.48;;
65545;SDS011;52177;55.968;37.498;2023-02-01T00:58:41;14.13;;;10.85;;
65545;SDS011;52177;55.968;37.498;2023-02-01T00:59:11;15.10;;;10.93;;
65545;SDS011;52177;55.968;37.498;2023-02-01T00:59:42;14.55;;;11.60;;
65545;SDS011;52177;55.968;37.498;2023-02-01T01:00:12;15.90;;;11.10;;
65545;SDS011;52177;55.968;37.498;2023-02-01T01:00:43;14.73;;;11.07;;
65545;SDS011;52177;55.968;37.498;2023-02-01T01:01:45;17.35;;;11.23;;
65545;SDS011;52177;55.968;37.498;2023-02-01T01:02:15;16.73;;;11.68;;
65545;SDS011;52177;55.968;37.498;2023-02-01T01:02:46;15.43;;;11.07;;
65545;SDS011;52177;55.968;37.498;2023-02-01T01:03:16;13.90;;;10.57;;
65545;SDS011;52177;55.968;37.498;2023-02-01T01:03:50;14.82;;;10.90;;
65545;SDS011;52177;55.968;37.498;2023-02-01T01:04:23;16.77;;;11.23;;
65545;SDS011;52177;55.968;37.498;2023-02-01T01:04:54;16.70;;;11.40;;
65545;SDS011;52177;55.968;37.498;2023-02-01T01:05:24;15.48;;;10.68;;
65545;SDS011;52177;55.968;37.498;2023-02-01T01:05:56;14.82;;;10.48;;
65545;SDS011;52177;55.968;37.498;2023-02-01T01:06:31;15.88;;;11.13;;
65545;SDS011;52177;55.968;37.498;2023-02-01T01:07:03;17.48;;;11.05;;
65545;SDS011;52177;55.968;37.498;2023-02-01T01:07:33;14.70;;;10.85;;
65545;SDS011;52177;55.968;37.498;2023-02-01T01:08:03;14.05;;;11.30;;
65545;SDS011;52177;55.968;37.498;2023-02-01T01:08:33;15.70;;;11.30;;
65545;SDS011;52177;55.968;37.498;2023-02-01T01:09:05;14.93;;;10.85;;
65545;SDS011;52177;55.968;37.498;2023-02-01T01:09:37;16.70;;;11.32;;
65545;SDS011;52177;55.968;37.498;2023-02-01T01:10:07;15.85;;;10.88;;
65545;SDS011;52177;55.968;37.498;2023-02-01T01:10:38;15.90;;;11.55;;
65545;SDS011;52177;55.968;37.498;2023-02-01T01:11:16;17.55;;;12.13;;
65545;SDS011;52177;55.968;37.498;2023-02-01T01:11:48;13.93;;;10.73;;
65545;SDS011;52177;55.968;37.498;2023-02-01T01:12:21;15.80;;;10.23;;
65545;SDS011;52177;55.968;37.498;2023-02-01T01:12:51;16.02;;;10.90;;
65545;SDS011;52177;55.968;37.498;2023-02-01T01:13:21;14.07;;;10.75;;
65545;SDS011;52177;55.968;37.498;2023-02-01T01:13:52;15.43;;;11.55;;
65545;SDS011;52177;55.968;37.498;2023-02-01T01:14:23;13.77;;;10.10;;
65545;SDS011;52177;55.968;37.498;2023-02-01T01:14:54;14.13;;;10.35;;
65545;SDS011;52177;55.968;37.498;2023-02-01T01:15:24;13.73;;;10.95;;
65545;SDS011;52177;55.968;37.498;2023-02-01T01:15:55;15.60;;;11.85;;
65545;SDS011;52177;55.968;37.498;2023-02-01T01:16:26;15.10;;;11.68;;
65545;SDS011;52177;55.968;37.498;2023-02-01T01:16:58;14.23;;;10.90;;
65545;SDS011;52177;55.968;37.498;2023-02-01T01:17:28;14.90;;;10.85;;
65545;SDS011;52177;55.968;37.498;2023-02-01T01:18:00;17.23;;;11.60;;
65545;SDS011;52177;55.968;37.498;2023-02-01T01:18:31;17.77;;;11.27;;
65545;SDS011;52177;55.968;37.498;2023-02-01T01:19:02;15.23;;;10.70;;
65545;SDS011;52177;55.968;37.498;2023-02-01T01:19:32;16.38;;;11.07;;
65545;SDS011;52177;55.968;37.498;2023-02-01T01:20:03;16.13;;;11.15;;
65545;SDS011;52177;55.968;37.498;2023-02-01T01:20:34;14.40;;;10.82;;
65545;SDS011;52177;55.968;37.498;2023-02-01T01:21:07;15.15;;;11.20;;
65545;SDS011;52177;55.968;37.498;2023-02-01T01:21:39;15.23;;;11.43;;
65545;SDS011;52177;55.968;37.498;2023-02-01T01:22:09;15.45;;;11.07;;
65545;SDS011;52177;55.968;37.498;2023-02-01T01:22:39;14.38;;;10.98;;
65545;SDS011;52177;55.968;37.498;2023-02-01T01:23:10;16.23;;;11.13;;
65545;SDS011;52177;55.968;37.498;2023-02-01T01:23:40;14.85;;;10.90;;
65545;SDS011;52177;55.968;37.498;2023-02-01T01:24:11;16.17;;;10.98;;
65545;SDS011;52177;55.968;37.498;2023-02-01T01:24:42;14.60;;;11.30;;
65545;SDS011;52177;55.968;37.498;2023-02-01T01:25:12;14.93;;;11.98;;
65545;SDS011;52177;55.968;37.498;2023-02-01T01:25:42;14.50;;;9.88;;
65545;SDS011;52177;55.968;37.498;2023-02-01T01:26:17;12.82;;;10.77;;
65545;SDS011;52177;55.968;37.498;2023-02-01T01:26:50;13.38;;;10.48;;
65545;SDS011;52177;55.968;37.498;2023-02-01T01:27:20;16.15;;;10.98;;
65545;SDS011;52177;55.968;37.498;2023-02-01T01:27:53;15.10;;;10.93;;
65545;SDS011;52177;55.968;37.498;2023-02-01T01:28:24;14.70;;;11.40;;
65545;SDS011;52177;55.968;37.498;2023-02-01T01:28:55;17.23;;;10.77;;
65545;SDS011;52177;55.968;37.498;2023-02-01T01:29:27;15.80;;;11.82;;
65545;SDS011;52177;55.968;37.498;2023-02-01T01:29:57;13.95;;;10.68;;
65545;SDS011;52177;55.968;37.498;2023-02-01T01:30:27;17.95;;;11.73;;
65545;SDS011;52177;55.968;37.498;2023-02-01T01:30:57;14.02;;;10.65;;
65545;SDS011;52177;55.968;37.498;2023-02-01T01:31:28;14.25;;;10.82;;
65545;SDS011;52177;55.968;37.498;2023-02-01T01:31:58;13.18;;;10.32;;
65545;SDS011;52177;55.968;37.498;2023-02-01T01:32:29;15.45;;;10.25;;
65545;SDS011;52177;55.968;37.498;2023-02-01T01:32:59;18.02;;;11.38;;
65545;SDS011;52177;55.968;37.498;2023-02-01T01:33:29;14.25;;;10.20;;
65545;SDS011;52177;55.968;37.498;2023-02-01T01:34:00;13.10;;;10.43;;
65545;SDS011;52177;55.968;37.498;2023-02-01T01:34:30;12.75;;;11.00;;
65545;SDS011;52177;55.968;37.498;2023-02-01T01:35:00;12.40;;;10.27;;
65545;SDS011;52177;55.968;37.498;2023-02-01T01:35:31;13.15;;;9.88;;
65545;SDS011;52177;55.968;37.498;2023-02-01T01:36:04;12.82;;;10.38;;
65545;SDS011;52177;55.968;37.498;2023-02-01T01:36:36;13.82;;;10.50;;
65545;SDS011;52177;55.968;37.498;2023-02-01T01:37:06;16.40;;;10.70;;
65545;SDS011;52177;55.968;37.498;2023-02-01T01:37:37;14.57;;;10.02;;
65545;SDS011;52177;55.968;37.498;2023-02-01T01:38:08;13.55;;;10.25;;
65545;SDS011;52177;55.968;37.498;2023-02-01T01:38:40;14.77;;;11.18;;
65545;SDS011;52177;55.968;37.498;2023-02-01T01:39:10;12.50;;;9.60;;
65545;SDS011;52177;55.968;37.498;2023-02-01T01:39:41;14.88;;;10.63;;
65545;SDS011;52177;55.968;37.498;2023-02-01T01:40:11;14.50;;;10.75;;
65545;SDS011;52177;55.968;37.498;2023-02-01T01:40:46;14.18;;;10.38;;
65545;SDS011;52177;55.968;37.498;2023-02-01T01:41:24;13.55;;;9.80;;
65545;SDS011;52177;55.968;37.498;2023-02-01T01:41:56;14.27;;;10.15;;
65545;SDS011;52177;55.968;37.498;2023-02-01T01:42:27;14.23;;;10.95;;
65545;SDS011;52177;55.968;37.498;2023-02-01T01:42:57;13.68;;;10.05;;
65545;SDS011;52177;55.968;37.498;2023-02-01T01:43:44;14.65;;;10.90;;
65545;SDS011;52177;55.968;37.498;2023-02-01T01:44:55;14.70;;;10.63;;
65545;SDS011;52177;55.968;37.498;2023-02-01T01:45:28;12.95;;;9.23;;
65545;SDS011;52177;55.968;37.498;2023-02-01T01:46:03;14.32;;;10.05;;
65545;SDS011;52177;55.968;37.498;2023-02-01T01:46:37;12.80;;;10.07;;
65545;SDS011;52177;55.968;37.498;2023-02-01T01:47:08;14.63;;;10.57;;
65545;SDS011;52177;55.968;37.498;2023-02-01T01:47:41;13.18;;;9.93;;
65545;SDS011;52177;55.968;37.498;2023-02-01T01:48:20;17.17;;;10.73;;
65545;SDS011;52177;55.968;37.498;2023-02-01T01:48:57;14.80;;;10.75;;
65545;SDS011;52177;55.968;37.498;2023-02-01T01:49:31;13.60;;;9.90;;
65545;SDS011;52177;55.968;37.498;2023-02-01T01:50:02;12.32;;;10.07;;
65545;SDS011;52177;55.968;37.498;2023-02-01T01:51:40;14.07;;;10.13;;
65545;SDS011;52177;55.968;37.498;2023-02-01T01:52:14;14.98;;;10.82;;
65545;SDS011;52177;55.968;37.498;2023-02-01T01:52:45;13.38;;;10.35;;
65545;SDS011;52177;55.968;37.498;2023-02-01T01:53:19;13.88;;;10.38;;
65545;SDS011;52177;55.968;37.498;2023-02-01T01:53:56;15.32;;;11.25;;
65545;SDS011;52177;55.968;37.498;2023-02-01T01:54:35;14.68;;;10.98;;
65545;SDS011;52177;55.968;37.498;2023-02-01T01:55:09;13.05;;;10.30;;
65545;SDS011;52177;55.968;37.498;2023-02-01T01:55:40;14.48;;;10.90;;
65545;SDS011;52177;55.968;37.498;2023-02-01T01:56:13;13.80;;;10.90;;
65545;SDS011;52177;55.968;37.498;2023-02-01T01:56:46;15.18;;;11.18;;
65545;SDS011;52177;55.968;37.498;2023-02-01T01:57:24;15.85;;;11.40;;
65545;SDS011;52177;55.968;37.498;2023-02-01T01:58:20;14.32;;;10.93;;
65545;SDS011;52177;55.968;37.498;2023-02-01T01:58:53;13.25;;;9.98;;
65545;SDS011;52177;55.968;37.498;2023-02-01T01:59:24;15.50;;;10.85;;
65545;SDS011;52177;55.968;37.498;2023-02-01T02:00:09;16.23;;;10.77;;
65545;SDS011;52177;55.968;37.498;2023-02-01T02:00:41;14.88;;;10.45;;
65545;SDS011;52177;55.968;37.498;2023-02-01T02:01:12;17.98;;;11.13;;
65545;SDS011;52177;55.968;37.498;2023-02-01T02:01:43;15.30;;;10.40;;
65545;SDS011;52177;55.968;37.498;2023-02-01T02:02:13;14.50;;;11.05;;
65545;SDS011;52177;55.968;37.498;2023-02-01T02:02:47;14.60;;;10.45;;
65545;SDS011;52177;55.968;37.498;2023-02-01T02:03:27;15.55;;;10.98;;
65545;SDS011;52177;55.968;37.498;2023-02-01T02:04:03;13.75;;;9.93;;
65545;SDS011;52177;55.968;37.498;2023-02-01T02:04:34;15.68;;;10.98;;
65545;SDS011;52177;55.968;37.498;2023-02-01T02:05:05;16.80;;;11.65;;
65545;SDS011;52177;55.968;37.498;2023-02-01T02:05:36;14.43;;;10.77;;
65545;SDS011;52177;55.968;37.498;2023-02-01T02:06:51;15.50;;;10.68;;
65545;SDS011;52177;55.968;37.498;2023-02-01T02:07:19;15.13;;;10.63;;
65545;SDS011;52177;55.968;37.498;2023-02-01T02:07:56;14.10;;;10.57;;
65545;SDS011;52177;55.968;37.498;2023-02-01T02:08:28;14.10;;;11.00;;
65545;SDS011;52177;55.968;37.498;2023-02-01T02:08:59;15.38;;;11.23;;
65545;SDS011;52177;55.968;37.498;2023-02-01T02:09:29;14.18;;;10.40;;
65545;SDS011;52177;55.968;37.498;2023-02-01T02:10:00;14.48;;;11.45;;
65545;SDS011;52177;55.968;37.498;2023-02-01T02:10:36;15.77;;;10.48;;
65545;SDS011;52177;55.968;37.498;2023-02-01T02:11:25;16.42;;;10.82;;
65545;SDS011;52177;55.968;37.498;2023-02-01T02:11:55;16.90;;;10.77;;
65545;SDS011;52177;55.968;37.498;2023-02-01T02:12:25;14.85;;;10.60;;
65545;SDS011;52177;55.968;37.498;2023-02-01T02:12:56;14.93;;;10.73;;
65545;SDS011;52177;55.968;37.498;2023-02-01T02:13:37;16.25;;;10.45;;
65545;SDS011;52177;55.968;37.498;2023-02-01T02:14:11;15.38;;;10.68;;
65545;SDS011;52177;55.968;37.498;2023-02-01T02:14:44;13.93;;;10.23;;
65545;SDS011;52177;55.968;37.498;2023-02-01T02:15:15;15.35;;;10.48;;
65545;SDS011;52177;55.968;37.498;2023-02-01T02:17:36;15.00;;;10.18;;
65545;SDS011;52177;55.968;37.498;2023-02-01T02:18:30;14.70;;;9.63;;
65545;SDS011;52177;55.968;37.498;2023-02-01T02:23:45;17.23;;;10.77;;
65545;SDS011;52177;55.968;37.498;2023-02-01T02:29:56;17.30;;;9.75;;
65545;SDS011;52177;55.968;37.498;2023-02-01T02:34:12;17.50;;;10.65;;
65545;SDS011;52177;55.968;37.498;2023-02-01T02:34:57;16.48;;;10.13;;
65545;SDS011;52177;55.968;37.498;2023-02-01T02:35:46;13.98;;;10.32;;
65545;SDS011;52177;55.968;37.498;2023-02-01T02:36:40;12.95;;;9.45;;
65545;SDS011;52177;55.968;37.498;2023-02-01T02:38:15;15.40;;;10.15;;
65545;SDS011;52177;55.968;37.498;2023-02-01T02:40:29;18.63;;;11.02;;
65545;SDS011;52177;55.968;37.498;2023-02-01T02:42:12;15.20;;;10.82;;
65545;SDS011;52177;55.968;37.498;2023-02-01T02:45:07;14.52;;;9.85;;
65545;SDS011;52177;55.968;37.498;2023-02-01T02:46:28;15.77;;;10.05;;
65545;SDS011;52177;55.968;37.498;2023-02-01T02:48:35;17.23;;;10.88;;
65545;SDS011;52177;55.968;37.498;2023-02-01T02:49:54;14.35;;;9.70;;
65545;SDS011;52177;55.968;37.498;2023-02-01T02:50:45;13.98;;;10.07;;
65545;SDS011;52177;55.968;37.498;2023-02-01T02:51:46;16.13;;;9.77;;
65545;SDS011;52177;55.968;37.498;2023-02-01T02:52:50;14.82;;;9.70;;
65545;SDS011;52177;55.968;37.498;2023-02-01T02:54:46;14.88;;;9.75;;
65545;SDS011;52177;55.968;37.498;2023-02-01T02:55:21;12.63;;;9.48;;
65545;SDS011;52177;55.968;37.498;2023-02-01T02:55:54;15.13;;;10.05;;
65545;SDS011;52177;55.968;37.498;2023-02-01T02:56:44;15.13;;;10.13;;
65545;SDS011;52177;55.968;37.498;2023-02-01T02:57:38;15.45;;;9.65;;
65545;SDS011;52177;55.968;37.498;2023-02-01T02:58:30;16.55;;;9.73;;
65545;SDS011;52177;55.968;37.498;2023-02-01T02:59:19;13.20;;;9.10;;
65545;SDS011;52177;55.968;37.498;2023-02-01T03:00:14;13.18;;;9.77;;
65545;SDS011;52177;55.968;37.498;2023-02-01T03:01:06;13.25;;;9.70;;
65545;SDS011;52177;55.968;37.498;2023-02-01T03:01:55;14.65;;;9.15;;
65545;SDS011;52177;55.968;37.498;2023-02-01T03:02:44;12.85;;;8.88;;
65545;SDS011;52177;55.968;37.498;2023-02-01T03:04:25;12.05;;;8.38;;
65545;SDS011;52177;55.968;37.498;2023-02-01T03:04:55;12.90;;;8.95;;
65545;SDS011;52177;55.968;37.498;2023-02-01T03:05:31;14.23;;;9.02;;
65545;SDS011;52177;55.968;37.498;2023-02-01T03:06:03;14.90;;;9.90;;
65545;SDS011;52177;55.968;37.498;2023-02-01T03:06:36;14.95;;;10.23;;
65545;SDS011;52177;55.968;37.498;2023-02-01T03:07:11;13.02;;;8.85;;
65545;SDS011;52177;55.968;37.498;2023-02-01T03:08:15;12.38;;;9.88;;
65545;SDS011;52177;55.968;37.498;2023-02-01T03:08:48;15.35;;;10.23;;
65545;SDS011;52177;55.968;37.498;2023-02-01T03:10:04;13.75;;;10.07;;
65545;SDS011;52177;55.968;37.498;2023-02-01T03:10:42;11.48;;;8.88;;
65545;SDS011;52177;55.968;37.498;2023-02-01T03:11:13;12.73;;;10.23;;
65545;SDS011;52177;55.968;37.498;2023-02-01T03:11:45;16.08;;;9.85;;
65545;SDS011;52177;55.968;37.498;2023-02-01T03:12:37;16.90;;;10.13;;
65545;SDS011;52177;55.968;37.498;2023-02-01T03:14:27;11.55;;;8.55;;
65545;SDS011;52177;55.968;37.498;2023-02-01T03:15:03;12.95;;;8.98;;
65545;SDS011;52177;55.968;37.498;2023-02-01T03:15:50;12.88;;;9.02;;
65545;SDS011;52177;55.968;37.498;2023-02-01T03:17:04;13.45;;;9.27;;
65545;SDS011;52177;55.968;37.498;2023-02-01T03:17:42;11.48;;;8.50;;
65545;SDS011;52177;55.968;37.498;2023-02-01T03:18:32;13.57;;;9.35;;
65545;SDS011;52177;55.968;37.498;2023-02-01T03:19:55;14.25;;;9.90;;
65545;SDS011;52177;55.968;37.498;2023-02-01T03:20:30;12.35;;;9.27;;
65545;SDS011;52177;55.968;37.498;2023-02-01T03:21:02;13.10;;;9.45;;
65545;SDS011;52177;55.968;37.498;2023-02-01T03:22:08;14.45;;;9.98;;
65545;SDS011;52177;55.968;37.498;2023-02-01T03:22:42;13.77;;;10.13;;
65545;SDS011;52177;55.968;37.498;2023-02-01T03:23:16;12.82;;;9.18;;
65545;SDS011;52177;55.968;37.498;2023-02-01T03:23:48;12.27;;;10.20;;
65545;SDS011;52177;55.968;37.498;2023-02-01T03:25:05;15.40;;;9.07;;
65545;SDS011;52177;55.968;37.498;2023-02-01T03:25:40;11.45;;;9.45;;
65545;SDS011;52177;55.968;37.498;2023-02-01T03:26:12;14.27;;;10.13;;
65545;SDS011;52177;55.968;37.498;2023-02-01T03:26:48;10.98;;;9.43;;
65545;SDS011;52177;55.968;37.498;2023-02-01T03:27:29;13.35;;;9.32;;
65545;SDS011;52177;55.968;37.498;2023-02-01T03:28:04;13.00;;;9.15;;
65545;SDS011;52177;55.968;37.498;2023-02-01T03:28:39;11.85;;;8.85;;
65545;SDS011;52177;55.968;37.498;2023-02-01T03:29:18;12.38;;;9.43;;
65545;SDS011;52177;55.968;37.498;2023-02-01T03:30:36;12.60;;;9.07;;
65545;SDS011;52177;55.968;37.498;2023-02-01T03:31:08;14.57;;;9.63;;
65545;SDS011;52177;55.968;37.498;2023-02-01T03:31:39;11.68;;;8.93;;
65545;SDS011;52177;55.968;37.498;2023-02-01T03:32:10;13.68;;;9.90;;
65545;SDS011;52177;55.968;37.498;2023-02-01T03:32:41;11.55;;;9.02;;
65545;SDS011;52177;55.968;37.498;2023-02-01T03:33:33;14.07;;;9.30;;
65545;SDS011;52177;55.968;37.498;2023-02-01T03:34:03;13.43;;;9.30;;
65545;SDS011;52177;55.968;37.498;2023-02-01T03:34:34;12.32;;;9.00;;
65545;SDS011;52177;55.968;37.498;2023-02-01T03:35:05;12.82;;;9.65;;
65545;SDS011;52177;55.968;37.498;2023-02-01T03:35:37;11.93;;;9.50;;
65545;SDS011;52177;55.968;37.498;2023-02-01T03:36:20;11.80;;;8.50;;
65545;SDS011;52177;55.968;37.498;2023-02-01T03:36:58;14.35;;;9.55;;
65545;SDS011;52177;55.968;37.498;2023-02-01T03:37:32;13.18;;;9.57;;
65545;SDS011;52177;55.968;37.498;2023-02-01T03:40:00;10.25;;;7.60;;
65545;SDS011;52177;55.968;37.498;2023-02-01T03:40:37;11.80;;;8.82;;
65545;SDS011;52177;55.968;37.498;2023-02-01T03:41:17;13.70;;;9.52;;
65545;SDS011;52177;55.968;37.498;2023-02-01T03:41:56;11.98;;;8.88;;
65545;SDS011;52177;55.968;37.498;2023-02-01T03:42:40;11.38;;;8.38;;
65545;SDS011;52177;55.968;37.498;2023-02-01T03:43:15;12.85;;;8.40;;
65545;SDS011;52177;55.968;37.498;2023-02-01T03:43:54;10.80;;;8.40;;
65545;SDS011;52177;55.968;37.498;2023-02-01T03:44:40;13.18;;;9.05;;
65545;SDS011;52177;55.968;37.498;2023-02-01T03:45:24;15.25;;;9.52;;
65545;SDS011;52177;55.968;37.498;2023-02-01T03:46:01;10.90;;;8.07;;
65545;SDS011;52177;55.968;37.498;2023-02-01T03:46:41;16.90;;;8.75;;
65545;SDS011;52177;55.968;37.498;2023-02-01T03:47:20;11.93;;;8.68;;
65545;SDS011;52177;55.968;37.498;2023-02-01T03:47:54;10.23;;;8.80;;
65545;SDS011;52177;55.968;37.498;2023-02-01T03:48:30;14.60;;;8.85;;
65545;SDS011;52177;55.968;37.498;2023-02-01T03:49:01;12.98;;;8.45;;
65545;SDS011;52177;55.968;37.498;2023-02-01T03:49:52;12.65;;;9.02;;
65545;SDS011;52177;55.968;37.498;2023-02-01T03:50:25;10.48;;;8.32;;
65545;SDS011;52177;55.968;37.498;2023-02-01T03:50:58;10.88;;;8.60;;
65545;SDS011;52177;55.968;37.498;2023-02-01T03:51:33;12.38;;;8.85;;
65545;SDS011;52177;55.968;37.498;2023-02-01T03:52:06;12.90;;;8.73;;
65545;SDS011;52177;55.968;37.498;2023-02-01T03:53:37;13.18;;;8.73;;
65545;SDS011;52177;55.968;37.498;2023-02-01T03:54:11;11.48;;;8.07;;
65545;SDS011;52177;55.968;37.498;2023-02-01T03:54:44;11.40;;;8.70;;
65545;SDS011;52177;55.968;37.498;2023-02-01T03:55:17;13.90;;;9.57;;